sensor_id;sensor_type;location;lat;lon;timestamp;temperature;humidity
8487;DHT22;4280;50.534;8.708;2022-09-09T00:28:55;16.70;61.10
8487;DHT22;4280;50.534;8.708;2022-09-09T00:31:31;15.90;99.90
8487;DHT22;4280;50.534;8.708;2022-09-09T00:34:03;15.90;99.90
8487;DHT22;4280;50.534;8.708;2022-09-09T00:36:35;15.80;99.90
8487;DHT22;4280;50.534;8.708;2022-09-09T00:39:05;15.80;99.90
8487;DHT22;4280;50.534;8.708;2022-09-09T00:41:43;15.80;99.90
8487;DHT22;4280;50.534;8.708;2022-09-09T00:44:25;15.70;99.90
8487;DHT22;4280;50.534;8.708;2022-09-09T00:47:04;15.70;99.90
8487;DHT22;4280;50.534;8.708;2022-09-09T00:49:41;15.70;99.90
8487;DHT22;4280;50.534;8.708;2022-09-09T00:52:22;15.70;99.90
8487;DHT22;4280;50.534;8.708;2022-09-09T00:55:03;15.60;99.90
8487;DHT22;4280;50.534;8.708;2022-09-09T00:57:36;15.60;99.90
8487;DHT22;4280;50.534;8.708;2022-09-09T01:00:21;15.50;99.90
8487;DHT22;4280;50.534;8.708;2022-09-09T01:02:53;15.40;99.90
8487;DHT22;4280;50.534;8.708;2022-09-09T01:05:36;15.40;99.90
8487;DHT22;4280;50.534;8.708;2022-09-09T01:08:14;15.30;99.90
8487;DHT22;4280;50.534;8.708;2022-09-09T01:10:54;15.30;99.90
8487;DHT22;4280;50.534;8.708;2022-09-09T01:13:28;15.30;99.90
8487;DHT22;4280;50.534;8.708;2022-09-09T01:16:10;15.30;99.90
8487;DHT22;4280;50.534;8.708;2022-09-09T01:18:43;15.20;99.90
8487;DHT22;4280;50.534;8.708;2022-09-09T01:21:16;15.20;99.90
8487;DHT22;4280;50.534;8.708;2022-09-09T01:23:59;15.20;99.90
8487;DHT22;4280;50.534;8.708;2022-09-09T01:26:57;15.10;99.90
8487;DHT22;4280;50.534;8.708;2022-09-09T01:29:28;15.10;99.90
8487;DHT22;4280;50.534;8.708;2022-09-09T01:31:59;15.10;99.90
8487;DHT22;4280;50.534;8.708;2022-09-09T01:34:30;15.10;99.90
8487;DHT22;4280;50.534;8.708;2022-09-09T01:37:03;15.20;99.90
8487;DHT22;4280;50.534;8.708;2022-09-09T01:39:37;15.20;99.90
8487;DHT22;4280;50.534;8.708;2022-09-09T01:42:14;15.20;99.90
8487;DHT22;4280;50.534;8.708;2022-09-09T01:44:45;15.20;99.90
8487;DHT22;4280;50.534;8.708;2022-09-09T01:47:15;15.20;99.90
8487;DHT22;4280;50.534;8.708;2022-09-09T01:50:15;15.20;99.90
8487;DHT22;4280;50.534;8.708;2022-09-09T01:52:46;15.20;99.90
8487;DHT22;4280;50.534;8.708;2022-09-09T01:55:19;15.20;99.90
8487;DHT22;4280;50.534;8.708;2022-09-09T01:57:58;15.20;99.90
8487;DHT22;4280;50.534;8.708;2022-09-09T02:00:53;15.20;99.90
8487;DHT22;4280;50.534;8.708;2022-09-09T02:03:27;15.20;99.90
8487;DHT22;4280;50.534;8.708;2022-09-09T02:06:10;15.20;99.90
8487;DHT22;4280;50.534;8.708;2022-09-09T02:08:50;15.20;99.90
8487;DHT22;4280;50.534;8.708;2022-09-09T02:11:22;15.20;99.90
8487;DHT22;4280;50.534;8.708;2022-09-09T02:14:05;15.20;99.90
8487;DHT22;4280;50.534;8.708;2022-09-09T02:16:42;15.20;99.90
8487;DHT22;4280;50.534;8.708;2022-09-09T02:19:15;15.20;99.90
8487;DHT22;4280;50.534;8.708;2022-09-09T02:22:05;15.10;99.90
8487;DHT22;4280;50.534;8.708;2022-09-09T02:24:36;15.00;99.90
8487;DHT22;4280;50.534;8.708;2022-09-09T02:27:16;15.00;99.90
8487;DHT22;4280;50.534;8.708;2022-09-09T02:29:51;14.90;99.90
8487;DHT22;4280;50.534;8.708;2022-09-09T02:32:33;14.90;99.90
8487;DHT22;4280;50.534;8.708;2022-09-09T02:35:08;14.80;99.90
8487;DHT22;4280;50.534;8.708;2022-09-09T02:37:42;14.80;99.90
8487;DHT22;4280;50.534;8.708;2022-09-09T02:40:17;14.70;99.90
8487;DHT22;4280;50.534;8.708;2022-09-09T02:42:55;14.70;99.90
8487;DHT22;4280;50.534;8.708;2022-09-09T02:45:32;14.70;99.90
8487;DHT22;4280;50.534;8.708;2022-09-09T02:48:08;14.70;99.90
8487;DHT22;4280;50.534;8.708;2022-09-09T02:50:45;14.70;99.90
8487;DHT22;4280;50.534;8.708;2022-09-09T02:53:22;14.70;99.90
8487;DHT22;4280;50.534;8.708;2022-09-09T02:55:56;14.80;99.90
8487;DHT22;4280;50.534;8.708;2022-09-09T02:58:31;14.80;99.90
8487;DHT22;4280;50.534;8.708;2022-09-09T03:01:06;14.90;99.90
8487;DHT22;4280;50.534;8.708;2022-09-09T03:03:37;14.90;99.90
8487;DHT22;4280;50.534;8.708;2022-09-09T03:06:12;14.90;99.90
8487;DHT22;4280;50.534;8.708;2022-09-09T03:08:47;14.90;99.90
8487;DHT22;4280;50.534;8.708;2022-09-09T03:11:23;14.90;99.90
8487;DHT22;4280;50.534;8.708;2022-09-09T03:13:54;14.90;99.90
8487;DHT22;4280;50.534;8.708;2022-09-09T03:16:28;14.90;99.90
8487;DHT22;4280;50.534;8.708;2022-09-09T03:18:59;14.90;99.90
8487;DHT22;4280;50.534;8.708;2022-09-09T03:21:30;14.90;99.90
8487;DHT22;4280;50.534;8.708;2022-09-09T03:24:00;14.90;99.90
8487;DHT22;4280;50.534;8.708;2022-09-09T03:26:30;14.80;99.90
8487;DHT22;4280;50.534;8.708;2022-09-09T03:29:14;14.80;99.90
8487;DHT22;4280;50.534;8.708;2022-09-09T03:31:48;14.80;99.90
8487;DHT22;4280;50.534;8.708;2022-09-09T03:34:17;14.80;99.90
8487;DHT22;4280;50.534;8.708;2022-09-09T03:36:47;14.80;99.90
8487;DHT22;4280;50.534;8.708;2022-09-09T03:39:18;14.80;99.90
8487;DHT22;4280;50.534;8.708;2022-09-09T03:41:48;14.80;99.90
8487;DHT22;4280;50.534;8.708;2022-09-09T03:44:18;14.80;99.90
8487;DHT22;4280;50.534;8.708;2022-09-09T03:46:50;14.80;99.90
8487;DHT22;4280;50.534;8.708;2022-09-09T03:49:20;14.90;99.90
8487;DHT22;4280;50.534;8.708;2022-09-09T03:51:50;14.90;99.90
8487;DHT22;4280;50.534;8.708;2022-09-09T03:54:21;14.90;99.90
8487;DHT22;4280;50.534;8.708;2022-09-09T03:56:50;14.90;99.90
8487;DHT22;4280;50.534;8.708;2022-09-09T03:59:22;14.90;99.90
8487;DHT22;4280;50.534;8.708;2022-09-09T04:01:54;14.80;99.90
8487;DHT22;4280;50.534;8.708;2022-09-09T04:04:26;14.90;99.90
8487;DHT22;4280;50.534;8.708;2022-09-09T04:06:56;14.90;99.90
8487;DHT22;4280;50.534;8.708;2022-09-09T04:09:26;14.90;99.90
8487;DHT22;4280;50.534;8.708;2022-09-09T04:11:55;14.90;99.90
8487;DHT22;4280;50.534;8.708;2022-09-09T04:14:25;14.80;99.90
8487;DHT22;4280;50.534;8.708;2022-09-09T04:16:59;14.80;99.90
8487;DHT22;4280;50.534;8.708;2022-09-09T04:19:32;14.90;99.90
8487;DHT22;4280;50.534;8.708;2022-09-09T04:22:04;14.80;99.90
8487;DHT22;4280;50.534;8.708;2022-09-09T04:24:34;14.80;99.90
8487;DHT22;4280;50.534;8.708;2022-09-09T04:27:04;14.80;99.90
8487;DHT22;4280;50.534;8.708;2022-09-09T04:29:35;14.70;99.90
8487;DHT22;4280;50.534;8.708;2022-09-09T04:32:07;14.70;99.90
8487;DHT22;4280;50.534;8.708;2022-09-09T04:34:39;14.60;99.90
8487;DHT22;4280;50.534;8.708;2022-09-09T04:37:09;14.60;99.90
8487;DHT22;4280;50.534;8.708;2022-09-09T04:39:39;14.50;99.90
8487;DHT22;4280;50.534;8.708;2022-09-09T04:42:09;14.30;99.90
8487;DHT22;4280;50.534;8.708;2022-09-09T04:44:39;14.30;99.90
8487;DHT22;4280;50.534;8.708;2022-09-09T04:47:12;14.30;99.90
8487;DHT22;4280;50.534;8.708;2022-09-09T04:49:42;14.30;99.90
8487;DHT22;4280;50.534;8.708;2022-09-09T04:52:12;14.20;99.90
8487;DHT22;4280;50.534;8.708;2022-09-09T04:54:44;14.20;99.90
8487;DHT22;4280;50.534;8.708;2022-09-09T04:57:15;14.30;99.90
8487;DHT22;4280;50.534;8.708;2022-09-09T04:59:46;14.30;99.90
8487;DHT22;4280;50.534;8.708;2022-09-09T05:02:19;14.30;99.90
8487;DHT22;4280;50.534;8.708;2022-09-09T05:04:50;14.30;99.90
8487;DHT22;4280;50.534;8.708;2022-09-09T05:07:20;14.30;99.90
8487;DHT22;4280;50.534;8.708;2022-09-09T05:09:50;14.40;99.90
8487;DHT22;4280;50.534;8.708;2022-09-09T05:12:21;14.40;99.90
8487;DHT22;4280;50.534;8.708;2022-09-09T05:14:52;14.50;99.90
8487;DHT22;4280;50.534;8.708;2022-09-09T05:17:24;14.50;99.90
8487;DHT22;4280;50.534;8.708;2022-09-09T05:19:54;14.60;99.90
8487;DHT22;4280;50.534;8.708;2022-09-09T05:22:24;14.70;99.90
8487;DHT22;4280;50.534;8.708;2022-09-09T05:24:54;14.70;99.90
8487;DHT22;4280;50.534;8.708;2022-09-09T05:27:25;14.80;99.90
8487;DHT22;4280;50.534;8.708;2022-09-09T05:29:55;15.00;99.90
8487;DHT22;4280;50.534;8.708;2022-09-09T05:32:27;15.10;99.90
8487;DHT22;4280;50.534;8.708;2022-09-09T05:35:01;15.10;99.90
8487;DHT22;4280;50.534;8.708;2022-09-09T05:37:31;15.00;99.90
8487;DHT22;4280;50.534;8.708;2022-09-09T05:40:02;15.00;99.90
8487;DHT22;4280;50.534;8.708;2022-09-09T05:42:32;15.00;99.90
8487;DHT22;4280;50.534;8.708;2022-09-09T05:45:03;15.00;99.90
8487;DHT22;4280;50.534;8.708;2022-09-09T05:47:37;15.00;99.90
8487;DHT22;4280;50.534;8.708;2022-09-09T05:50:10;15.00;99.90
8487;DHT22;4280;50.534;8.708;2022-09-09T05:52:40;15.00;99.90
8487;DHT22;4280;50.534;8.708;2022-09-09T05:55:11;15.00;99.90
8487;DHT22;4280;50.534;8.708;2022-09-09T05:57:42;15.10;99.90
8487;DHT22;4280;50.534;8.708;2022-09-09T06:00:13;15.10;99.90
8487;DHT22;4280;50.534;8.708;2022-09-09T06:02:52;15.10;99.90
8487;DHT22;4280;50.534;8.708;2022-09-09T06:05:23;15.10;99.90
8487;DHT22;4280;50.534;8.708;2022-09-09T06:07:54;15.10;99.90
8487;DHT22;4280;50.534;8.708;2022-09-09T06:10:24;15.10;99.90
8487;DHT22;4280;50.534;8.708;2022-09-09T06:12:55;15.10;99.90
8487;DHT22;4280;50.534;8.708;2022-09-09T06:15:24;15.10;99.90
8487;DHT22;4280;50.534;8.708;2022-09-09T06:17:59;15.10;99.90
8487;DHT22;4280;50.534;8.708;2022-09-09T06:20:29;15.20;99.90
8487;DHT22;4280;50.534;8.708;2022-09-09T06:22:59;15.20;99.90
8487;DHT22;4280;50.534;8.708;2022-09-09T06:25:30;15.30;99.90
8487;DHT22;4280;50.534;8.708;2022-09-09T06:28:01;15.40;99.90
8487;DHT22;4280;50.534;8.708;2022-09-09T06:30:32;15.50;99.90
8487;DHT22;4280;50.534;8.708;2022-09-09T06:33:05;15.50;99.90
8487;DHT22;4280;50.534;8.708;2022-09-09T06:35:36;15.60;99.90
8487;DHT22;4280;50.534;8.708;2022-09-09T06:38:06;15.60;99.90
8487;DHT22;4280;50.534;8.708;2022-09-09T06:40:36;15.70;99.90
8487;DHT22;4280;50.534;8.708;2022-09-09T06:43:07;15.80;99.90
8487;DHT22;4280;50.534;8.708;2022-09-09T06:45:42;15.90;99.90
8487;DHT22;4280;50.534;8.708;2022-09-09T06:48:14;16.00;99.90
8487;DHT22;4280;50.534;8.708;2022-09-09T06:50:44;16.10;99.90
8487;DHT22;4280;50.534;8.708;2022-09-09T06:53:18;16.20;99.90
8487;DHT22;4280;50.534;8.708;2022-09-09T06:55:49;16.40;99.90
8487;DHT22;4280;50.534;8.708;2022-09-09T06:58:19;16.50;99.90
8487;DHT22;4280;50.534;8.708;2022-09-09T07:00:49;16.60;99.90
8487;DHT22;4280;50.534;8.708;2022-09-09T07:03:22;16.80;99.90
8487;DHT22;4280;50.534;8.708;2022-09-09T07:05:55;16.90;99.90
8487;DHT22;4280;50.534;8.708;2022-09-09T07:08:27;17.10;99.90
8487;DHT22;4280;50.534;8.708;2022-09-09T07:11:01;17.20;99.90
8487;DHT22;4280;50.534;8.708;2022-09-09T07:13:36;17.30;99.90
8487;DHT22;4280;50.534;8.708;2022-09-09T07:16:07;17.40;98.00
8487;DHT22;4280;50.534;8.708;2022-09-09T07:18:41;17.40;96.60
8487;DHT22;4280;50.534;8.708;2022-09-09T07:21:12;17.40;96.80
8487;DHT22;4280;50.534;8.708;2022-09-09T07:23:43;17.50;95.80
8487;DHT22;4280;50.534;8.708;2022-09-09T07:26:14;17.50;93.70
8487;DHT22;4280;50.534;8.708;2022-09-09T07:28:46;17.50;95.10
8487;DHT22;4280;50.534;8.708;2022-09-09T07:31:16;17.60;93.50
8487;DHT22;4280;50.534;8.708;2022-09-09T07:33:50;17.70;93.60
8487;DHT22;4280;50.534;8.708;2022-09-09T07:36:21;17.70;92.20
8487;DHT22;4280;50.534;8.708;2022-09-09T07:38:56;17.90;92.00
8487;DHT22;4280;50.534;8.708;2022-09-09T07:41:28;18.00;88.00
8487;DHT22;4280;50.534;8.708;2022-09-09T07:44:03;18.10;88.10
8487;DHT22;4280;50.534;8.708;2022-09-09T07:46:35;18.10;83.60
8487;DHT22;4280;50.534;8.708;2022-09-09T07:49:10;18.10;83.60
8487;DHT22;4280;50.534;8.708;2022-09-09T07:51:41;18.20;84.10
8487;DHT22;4280;50.534;8.708;2022-09-09T07:54:14;18.20;83.00
8487;DHT22;4280;50.534;8.708;2022-09-09T07:56:49;18.20;86.40
8487;DHT22;4280;50.534;8.708;2022-09-09T07:59:22;18.10;82.50
8487;DHT22;4280;50.534;8.708;2022-09-09T08:01:53;18.10;88.10
8487;DHT22;4280;50.534;8.708;2022-09-09T08:04:29;18.00;87.60
8487;DHT22;4280;50.534;8.708;2022-09-09T08:06:59;18.10;88.10
8487;DHT22;4280;50.534;8.708;2022-09-09T08:09:36;18.20;85.80
8487;DHT22;4280;50.534;8.708;2022-09-09T08:12:20;18.40;80.90
8487;DHT22;4280;50.534;8.708;2022-09-09T08:14:50;18.80;81.00
8487;DHT22;4280;50.534;8.708;2022-09-09T08:17:21;19.00;73.00
8487;DHT22;4280;50.534;8.708;2022-09-09T08:19:54;19.00;67.30
8487;DHT22;4280;50.534;8.708;2022-09-09T08:22:28;19.10;63.60
8487;DHT22;4280;50.534;8.708;2022-09-09T08:24:58;19.10;63.70
8487;DHT22;4280;50.534;8.708;2022-09-09T08:27:31;19.10;59.40
8487;DHT22;4280;50.534;8.708;2022-09-09T08:30:01;19.30;57.00
8487;DHT22;4280;50.534;8.708;2022-09-09T08:32:31;19.50;56.30
8487;DHT22;4280;50.534;8.708;2022-09-09T08:35:04;19.70;44.20
8487;DHT22;4280;50.534;8.708;2022-09-09T08:37:35;20.00;31.80
8487;DHT22;4280;50.534;8.708;2022-09-09T08:40:07;19.80;29.50
8487;DHT22;4280;50.534;8.708;2022-09-09T08:42:39;19.70;30.50
8487;DHT22;4280;50.534;8.708;2022-09-09T08:48:08;20.10;31.90
8487;DHT22;4280;50.534;8.708;2022-09-09T08:50:47;20.20;29.00
8487;DHT22;4280;50.534;8.708;2022-09-09T08:53:26;20.10;26.60
8487;DHT22;4280;50.534;8.708;2022-09-09T08:55:59;20.10;26.60
8487;DHT22;4280;50.534;8.708;2022-09-09T08:58:45;20.40;25.60
8487;DHT22;4280;50.534;8.708;2022-09-09T09:01:26;20.30;21.70
8487;DHT22;4280;50.534;8.708;2022-09-09T09:04:05;20.10;21.60
8487;DHT22;4280;50.534;8.708;2022-09-09T09:06:49;19.80;21.20
8487;DHT22;4280;50.534;8.708;2022-09-09T09:09:23;20.00;21.40
8487;DHT22;4280;50.534;8.708;2022-09-09T09:12:00;20.00;21.40
8487;DHT22;4280;50.534;8.708;2022-09-09T09:14:35;19.90;21.40
8487;DHT22;4280;50.534;8.708;2022-09-09T09:17:09;20.00;22.90
8487;DHT22;4280;50.534;8.708;2022-09-09T09:19:42;19.90;21.30
8487;DHT22;4280;50.534;8.708;2022-09-09T09:22:17;19.80;21.20
8487;DHT22;4280;50.534;8.708;2022-09-09T09:24:54;19.90;21.30
8487;DHT22;4280;50.534;8.708;2022-09-09T09:27:30;20.00;20.90
8487;DHT22;4280;50.534;8.708;2022-09-09T09:30:12;20.10;20.30
8487;DHT22;4280;50.534;8.708;2022-09-09T09:32:52;20.40;19.60
8487;DHT22;4280;50.534;8.708;2022-09-09T09:35:24;20.50;18.60
8487;DHT22;4280;50.534;8.708;2022-09-09T09:37:57;20.40;18.90
8487;DHT22;4280;50.534;8.708;2022-09-09T09:40:54;20.50;18.70
8487;DHT22;4280;50.534;8.708;2022-09-09T09:43:26;20.40;21.70
8487;DHT22;4280;50.534;8.708;2022-09-09T09:46:00;20.50;21.80
8487;DHT22;4280;50.534;8.708;2022-09-09T09:48:43;20.50;21.90
8487;DHT22;4280;50.534;8.708;2022-09-09T09:51:14;20.50;21.80
8487;DHT22;4280;50.534;8.708;2022-09-09T09:53:49;20.50;25.00
8487;DHT22;4280;50.534;8.708;2022-09-09T09:56:25;20.80;22.60
8487;DHT22;4280;50.534;8.708;2022-09-09T09:58:57;21.20;22.30
8487;DHT22;4280;50.534;8.708;2022-09-09T10:01:34;21.50;22.40
8487;DHT22;4280;50.534;8.708;2022-09-09T10:04:14;21.70;19.20
8487;DHT22;4280;50.534;8.708;2022-09-09T10:06:47;22.00;19.00
8487;DHT22;4280;50.534;8.708;2022-09-09T10:09:23;22.40;17.60
8487;DHT22;4280;50.534;8.708;2022-09-09T10:11:56;22.60;16.60
8487;DHT22;4280;50.534;8.708;2022-09-09T10:14:31;22.50;18.00
8487;DHT22;4280;50.534;8.708;2022-09-09T10:17:09;22.60;18.70
8487;DHT22;4280;50.534;8.708;2022-09-09T10:19:46;22.20;13.70
8487;DHT22;4280;50.534;8.708;2022-09-09T10:22:25;21.90;15.30
8487;DHT22;4280;50.534;8.708;2022-09-09T10:28:06;21.60;17.20
8487;DHT22;4280;50.534;8.708;2022-09-09T10:30:55;21.60;17.40
8487;DHT22;4280;50.534;8.708;2022-09-09T10:33:32;21.80;19.00
8487;DHT22;4280;50.534;8.708;2022-09-09T10:36:08;21.90;16.00
8487;DHT22;4280;50.534;8.708;2022-09-09T10:38:45;21.60;17.40
8487;DHT22;4280;50.534;8.708;2022-09-09T10:41:19;21.50;18.50
8487;DHT22;4280;50.534;8.708;2022-09-09T10:44:13;21.70;15.90
8487;DHT22;4280;50.534;8.708;2022-09-09T10:49:59;21.70;16.60
8487;DHT22;4280;50.534;8.708;2022-09-09T10:52:36;21.50;16.20
8487;DHT22;4280;50.534;8.708;2022-09-09T10:55:10;21.50;10.10
8487;DHT22;4280;50.534;8.708;2022-09-09T10:57:46;21.40;16.50
8487;DHT22;4280;50.534;8.708;2022-09-09T11:00:19;21.20;18.40
8487;DHT22;4280;50.534;8.708;2022-09-09T11:02:51;20.90;20.60
8487;DHT22;4280;50.534;8.708;2022-09-09T11:05:25;20.50;25.80
8487;DHT22;4280;50.534;8.708;2022-09-09T11:07:58;20.20;32.10
8487;DHT22;4280;50.534;8.708;2022-09-09T11:10:44;19.70;36.10
8487;DHT22;4280;50.534;8.708;2022-09-09T11:13:22;19.30;35.60
8487;DHT22;4280;50.534;8.708;2022-09-09T11:15:56;19.30;33.30
8487;DHT22;4280;50.534;8.708;2022-09-09T11:18:30;19.40;31.30
8487;DHT22;4280;50.534;8.708;2022-09-09T11:21:01;19.60;31.50
8487;DHT22;4280;50.534;8.708;2022-09-09T11:23:34;19.70;31.70
8487;DHT22;4280;50.534;8.708;2022-09-09T11:26:07;19.80;31.70
8487;DHT22;4280;50.534;8.708;2022-09-09T11:28:46;20.10;41.60
8487;DHT22;4280;50.534;8.708;2022-09-09T11:31:33;20.60;32.90
8487;DHT22;4280;50.534;8.708;2022-09-09T11:34:18;21.00;30.00
8487;DHT22;4280;50.534;8.708;2022-09-09T11:37:04;21.20;28.40
8487;DHT22;4280;50.534;8.708;2022-09-09T11:42:48;21.60;25.80
8487;DHT22;4280;50.534;8.708;2022-09-09T11:45:23;21.50;25.80
8487;DHT22;4280;50.534;8.708;2022-09-09T11:47:55;21.40;26.20
8487;DHT22;4280;50.534;8.708;2022-09-09T11:50:28;21.20;28.70
8487;DHT22;4280;50.534;8.708;2022-09-09T11:53:03;21.20;27.50
8487;DHT22;4280;50.534;8.708;2022-09-09T11:55:35;21.20;27.10
8487;DHT22;4280;50.534;8.708;2022-09-09T11:58:05;21.50;25.90
8487;DHT22;4280;50.534;8.708;2022-09-09T12:00:48;21.60;25.40
8487;DHT22;4280;50.534;8.708;2022-09-09T12:03:34;21.50;24.40
8487;DHT22;4280;50.534;8.708;2022-09-09T12:06:12;21.40;25.40
8487;DHT22;4280;50.534;8.708;2022-09-09T12:08:48;21.30;22.50
8487;DHT22;4280;50.534;8.708;2022-09-09T12:11:25;21.40;27.60
8487;DHT22;4280;50.534;8.708;2022-09-09T12:13:57;21.60;26.70
8487;DHT22;4280;50.534;8.708;2022-09-09T12:16:31;21.60;22.60
8487;DHT22;4280;50.534;8.708;2022-09-09T12:19:06;21.50;20.30
8487;DHT22;4280;50.534;8.708;2022-09-09T12:21:44;21.50;19.80
8487;DHT22;4280;50.534;8.708;2022-09-09T12:24:19;21.40;19.10
8487;DHT22;4280;50.534;8.708;2022-09-09T12:26:56;21.30;17.20
8487;DHT22;4280;50.534;8.708;2022-09-09T12:29:32;21.30;22.30
8487;DHT22;4280;50.534;8.708;2022-09-09T12:32:10;21.40;26.00
8487;DHT22;4280;50.534;8.708;2022-09-09T12:34:41;21.30;28.20
8487;DHT22;4280;50.534;8.708;2022-09-09T12:37:15;21.30;30.10
8487;DHT22;4280;50.534;8.708;2022-09-09T12:39:51;21.50;33.30
8487;DHT22;4280;50.534;8.708;2022-09-09T12:42:24;21.90;22.80
8487;DHT22;4280;50.534;8.708;2022-09-09T12:44:55;22.20;17.80
8487;DHT22;4280;50.534;8.708;2022-09-09T12:47:30;22.30;18.00
8487;DHT22;4280;50.534;8.708;2022-09-09T12:50:14;22.20;17.80
8487;DHT22;4280;50.534;8.708;2022-09-09T12:52:46;22.30;12.50
8487;DHT22;4280;50.534;8.708;2022-09-09T12:55:17;22.40;12.60
8487;DHT22;4280;50.534;8.708;2022-09-09T12:57:48;22.40;12.60
8487;DHT22;4280;50.534;8.708;2022-09-09T13:00:20;22.60;6.50
8487;DHT22;4280;50.534;8.708;2022-09-09T13:02:54;22.50;6.00
8487;DHT22;4280;50.534;8.708;2022-09-09T13:05:26;22.50;7.30
8487;DHT22;4280;50.534;8.708;2022-09-09T13:08:00;22.50;7.30
8487;DHT22;4280;50.534;8.708;2022-09-09T13:10:32;22.50;5.70
8487;DHT22;4280;50.534;8.708;2022-09-09T13:13:17;22.30;5.30
8487;DHT22;4280;50.534;8.708;2022-09-09T13:15:50;22.20;7.20
8487;DHT22;4280;50.534;8.708;2022-09-09T13:18:24;21.90;7.70
8487;DHT22;4280;50.534;8.708;2022-09-09T13:20:56;21.80;8.80
8487;DHT22;4280;50.534;8.708;2022-09-09T13:23:28;21.50;12.00
8487;DHT22;4280;50.534;8.708;2022-09-09T13:25:59;20.90;13.10
8487;DHT22;4280;50.534;8.708;2022-09-09T13:28:31;20.70;16.70
8487;DHT22;4280;50.534;8.708;2022-09-09T13:31:02;20.40;16.50
8487;DHT22;4280;50.534;8.708;2022-09-09T13:33:36;20.30;17.00
8487;DHT22;4280;50.534;8.708;2022-09-09T13:36:07;20.30;16.40
8487;DHT22;4280;50.534;8.708;2022-09-09T13:38:39;20.30;17.00
8487;DHT22;4280;50.534;8.708;2022-09-09T13:41:23;20.30;16.50
8487;DHT22;4280;50.534;8.708;2022-09-09T13:43:54;20.50;16.60
8487;DHT22;4280;50.534;8.708;2022-09-09T13:46:25;20.50;16.50
8487;DHT22;4280;50.534;8.708;2022-09-09T13:49:17;20.70;15.10
8487;DHT22;4280;50.534;8.708;2022-09-09T13:51:49;20.80;14.60
8487;DHT22;4280;50.534;8.708;2022-09-09T13:54:20;20.90;16.20
8487;DHT22;4280;50.534;8.708;2022-09-09T13:56:50;21.30;11.10
8487;DHT22;4280;50.534;8.708;2022-09-09T13:59:23;21.60;6.70
8487;DHT22;4280;50.534;8.708;2022-09-09T14:02:08;21.90;5.40
8487;DHT22;4280;50.534;8.708;2022-09-09T14:04:40;22.00;2.60
8487;DHT22;4280;50.534;8.708;2022-09-09T14:07:11;21.90;9.10
8487;DHT22;4280;50.534;8.708;2022-09-09T14:09:42;21.80;10.60
8487;DHT22;4280;50.534;8.708;2022-09-09T14:12:16;21.50;10.80
8487;DHT22;4280;50.534;8.708;2022-09-09T14:14:46;21.60;10.20
8487;DHT22;4280;50.534;8.708;2022-09-09T14:17:16;21.80;8.30
8487;DHT22;4280;50.534;8.708;2022-09-09T14:19:49;21.90;6.90
8487;DHT22;4280;50.534;8.708;2022-09-09T14:22:19;22.00;6.20
8487;DHT22;4280;50.534;8.708;2022-09-09T14:24:49;22.00;6.40
8487;DHT22;4280;50.534;8.708;2022-09-09T14:27:19;22.20;4.80
8487;DHT22;4280;50.534;8.708;2022-09-09T14:29:49;22.30;4.60
8487;DHT22;4280;50.534;8.708;2022-09-09T14:32:19;22.30;2.90
8487;DHT22;4280;50.534;8.708;2022-09-09T14:34:51;22.30;1.70
8487;DHT22;4280;50.534;8.708;2022-09-09T14:37:21;22.20;1.60
8487;DHT22;4280;50.534;8.708;2022-09-09T14:39:52;22.20;1.60
8487;DHT22;4280;50.534;8.708;2022-09-09T14:42:23;22.20;3.80
8487;DHT22;4280;50.534;8.708;2022-09-09T14:44:53;22.10;6.40
8487;DHT22;4280;50.534;8.708;2022-09-09T14:47:23;22.00;7.00
8487;DHT22;4280;50.534;8.708;2022-09-09T14:49:55;21.80;6.80
8487;DHT22;4280;50.534;8.708;2022-09-09T14:52:27;21.70;7.60
8487;DHT22;4280;50.534;8.708;2022-09-09T14:54:57;21.50;9.10
8487;DHT22;4280;50.534;8.708;2022-09-09T14:57:27;21.50;10.70
8487;DHT22;4280;50.534;8.708;2022-09-09T14:59:58;21.30;11.80
8487;DHT22;4280;50.534;8.708;2022-09-09T15:02:28;21.10;11.70
8487;DHT22;4280;50.534;8.708;2022-09-09T15:05:00;20.90;11.60
8487;DHT22;4280;50.534;8.708;2022-09-09T15:07:31;20.90;11.60
8487;DHT22;4280;50.534;8.708;2022-09-09T15:10:01;20.80;9.30
8487;DHT22;4280;50.534;8.708;2022-09-09T15:12:31;20.80;8.80
8487;DHT22;4280;50.534;8.708;2022-09-09T15:15:03;20.80;7.20
8487;DHT22;4280;50.534;8.708;2022-09-09T15:17:33;20.70;7.50
8487;DHT22;4280;50.534;8.708;2022-09-09T15:20:06;20.80;7.30
8487;DHT22;4280;50.534;8.708;2022-09-09T15:22:37;20.90;6.20
8487;DHT22;4280;50.534;8.708;2022-09-09T15:25:07;20.80;6.30
8487;DHT22;4280;50.534;8.708;2022-09-09T15:27:39;20.80;6.10
8487;DHT22;4280;50.534;8.708;2022-09-09T15:30:10;20.90;6.20
8487;DHT22;4280;50.534;8.708;2022-09-09T15:32:40;21.10;9.10
8487;DHT22;4280;50.534;8.708;2022-09-09T15:35:13;21.40;8.80
8487;DHT22;4280;50.534;8.708;2022-09-09T15:37:43;21.70;6.70
8487;DHT22;4280;50.534;8.708;2022-09-09T15:40:13;21.90;5.60
8487;DHT22;4280;50.534;8.708;2022-09-09T15:42:43;22.00;1.40
8487;DHT22;4280;50.534;8.708;2022-09-09T15:45:14;21.90;1.80
8487;DHT22;4280;50.534;8.708;2022-09-09T15:47:44;21.80;3.70
8487;DHT22;4280;50.534;8.708;2022-09-09T15:50:19;21.80;4.10
8487;DHT22;4280;50.534;8.708;2022-09-09T15:52:49;21.70;4.40
8487;DHT22;4280;50.534;8.708;2022-09-09T15:55:19;21.60;4.80
8487;DHT22;4280;50.534;8.708;2022-09-09T15:57:50;21.50;6.40
8487;DHT22;4280;50.534;8.708;2022-09-09T16:00:21;21.20;6.40
8487;DHT22;4280;50.534;8.708;2022-09-09T16:02:51;20.80;6.20
8487;DHT22;4280;50.534;8.708;2022-09-09T16:05:24;20.40;6.50
8487;DHT22;4280;50.534;8.708;2022-09-09T16:07:54;20.20;8.10
8487;DHT22;4280;50.534;8.708;2022-09-09T16:10:24;20.00;9.60
8487;DHT22;4280;50.534;8.708;2022-09-09T16:12:54;19.80;10.80
8487;DHT22;4280;50.534;8.708;2022-09-09T16:15:24;19.70;10.70
8487;DHT22;4280;50.534;8.708;2022-09-09T16:17:54;19.60;10.80
8487;DHT22;4280;50.534;8.708;2022-09-09T16:20:27;19.50;13.10
8487;DHT22;4280;50.534;8.708;2022-09-09T16:22:57;19.50;14.20
8487;DHT22;4280;50.534;8.708;2022-09-09T16:25:28;19.40;15.70
8487;DHT22;4280;50.534;8.708;2022-09-09T16:27:58;19.40;15.80
8487;DHT22;4280;50.534;8.708;2022-09-09T16:30:32;19.30;17.50
8487;DHT22;4280;50.534;8.708;2022-09-09T16:33:02;19.30;18.50
8487;DHT22;4280;50.534;8.708;2022-09-09T16:35:35;19.20;18.40
8487;DHT22;4280;50.534;8.708;2022-09-09T16:38:05;19.10;19.80
8487;DHT22;4280;50.534;8.708;2022-09-09T16:40:36;19.10;20.70
8487;DHT22;4280;50.534;8.708;2022-09-09T16:43:06;19.10;20.70
8487;DHT22;4280;50.534;8.708;2022-09-09T16:45:41;19.10;20.70
8487;DHT22;4280;50.534;8.708;2022-09-09T16:48:12;19.10;20.80
8487;DHT22;4280;50.534;8.708;2022-09-09T16:50:44;19.00;20.70
8487;DHT22;4280;50.534;8.708;2022-09-09T16:53:15;19.00;22.20
8487;DHT22;4280;50.534;8.708;2022-09-09T16:55:45;18.90;25.30
8487;DHT22;4280;50.534;8.708;2022-09-09T16:58:15;18.80;28.20
8487;DHT22;4280;50.534;8.708;2022-09-09T17:00:45;18.70;30.70
8487;DHT22;4280;50.534;8.708;2022-09-09T17:03:15;18.60;35.90
8487;DHT22;4280;50.534;8.708;2022-09-09T17:05:48;18.40;37.70
8487;DHT22;4280;50.534;8.708;2022-09-09T17:08:18;18.40;41.20
8487;DHT22;4280;50.534;8.708;2022-09-09T17:10:47;18.40;43.00
8487;DHT22;4280;50.534;8.708;2022-09-09T17:13:17;18.40;41.30
8487;DHT22;4280;50.534;8.708;2022-09-09T17:15:47;18.30;41.90
8487;DHT22;4280;50.534;8.708;2022-09-09T17:18:17;18.30;41.60
8487;DHT22;4280;50.534;8.708;2022-09-09T17:20:50;18.30;42.80
8487;DHT22;4280;50.534;8.708;2022-09-09T17:23:20;18.30;42.90
8487;DHT22;4280;50.534;8.708;2022-09-09T17:25:55;18.30;42.90